createdAt,value
2023-02-19T00:01:43.607Z,67.09
2023-02-19T00:04:47.056Z,67.40
2023-02-19T00:07:50.482Z,67.59
2023-02-19T00:10:54.246Z,66.58
2023-02-19T00:13:59.058Z,66.33
2023-02-19T00:17:02.387Z,65.32
2023-02-19T00:20:06.657Z,65.88
2023-02-19T00:23:10.234Z,66.70
2023-02-19T00:26:18.446Z,64.94
2023-02-19T00:29:24.908Z,65.63
2023-02-19T00:32:28.185Z,65.79
2023-02-19T00:35:34.814Z,66.46
2023-02-19T00:38:39.401Z,66.46
2023-02-19T00:41:43.223Z,67.21
2023-02-19T00:44:46.361Z,67.96
2023-02-19T00:47:49.963Z,68.42
2023-02-19T00:50:53.244Z,68.71
2023-02-19T00:53:56.707Z,70.69
2023-02-19T00:57:00.308Z,69.76
2023-02-19T01:00:05.058Z,69.96
2023-02-19T01:03:08.430Z,70.26
2023-02-19T01:06:14.827Z,70.19
2023-02-19T01:09:18.107Z,70.23
2023-02-19T01:12:21.824Z,71.00
2023-02-19T01:15:25.310Z,71.56
2023-02-19T01:18:29.093Z,70.95
2023-02-19T01:21:32.447Z,70.63
2023-02-19T01:24:35.826Z,70.20
2023-02-19T01:27:39.005Z,70.50
2023-02-19T01:30:45.249Z,70.37
2023-02-19T01:33:54.569Z,70.25
2023-02-19T01:36:58.334Z,69.68
2023-02-19T01:40:01.808Z,69.70
2023-02-19T01:43:11.064Z,69.72
2023-02-19T01:46:16.977Z,69.63
2023-02-19T01:49:35.522Z,69.67
2023-02-19T01:52:38.822Z,69.55
2023-02-19T01:55:44.869Z,70.34
2023-02-19T01:58:48.666Z,70.54
2023-02-19T02:01:52.522Z,70.78
2023-02-19T02:05:00.050Z,69.96
2023-02-19T02:08:39.214Z,70.09
2023-02-19T02:11:52.573Z,70.76
2023-02-19T02:14:56.701Z,69.82
2023-02-19T02:18:11.131Z,70.72
2023-02-19T02:21:52.082Z,70.74
2023-02-19T02:25:17.681Z,71.10
2023-02-19T02:28:49.243Z,72.24
2023-02-19T02:32:05.847Z,72.82
2023-02-19T02:35:19.367Z,71.04
2023-02-19T02:38:29.281Z,72.24
2023-02-19T02:41:33.822Z,72.86
2023-02-19T02:44:39.948Z,72.09
2023-02-19T02:47:56.642Z,72.31
2023-02-19T02:51:08.925Z,72.92
2023-02-19T02:54:51.260Z,72.63
2023-02-19T02:57:54.906Z,72.92
2023-02-19T03:01:22.815Z,74.45
2023-02-19T03:05:15.615Z,74.95
2023-02-19T03:08:23.866Z,77.09
2023-02-19T03:11:49.979Z,79.18
2023-02-19T03:15:18.176Z,81.04
2023-02-19T03:18:43.370Z,81.76
2023-02-19T03:21:55.459Z,82.92
2023-02-19T03:25:22.252Z,83.30
2023-02-19T03:28:48.048Z,83.89
2023-02-19T03:32:00.739Z,84.88
2023-02-19T03:35:17.005Z,83.74
2023-02-19T03:38:27.823Z,81.90
2023-02-19T03:41:39.902Z,82.01
2023-02-19T03:45:14.387Z,80.86
2023-02-19T03:48:57.405Z,79.14
2023-02-19T03:52:06.266Z,75.78
2023-02-19T03:55:38.982Z,74.20
2023-02-19T03:58:54.897Z,74.62
2023-02-19T04:02:13.916Z,74.57
2023-02-19T04:05:22.278Z,75.14
2023-02-19T04:08:30.635Z,75.24
2023-02-19T04:11:36.188Z,75.94
2023-02-19T04:14:50.388Z,75.99
2023-02-19T04:18:01.182Z,76.07
2023-02-19T04:21:11.265Z,75.08
2023-02-19T04:24:22.063Z,75.02
2023-02-19T04:27:25.293Z,75.46
2023-02-19T04:30:29.086Z,75.09
2023-02-19T04:33:32.434Z,75.51
2023-02-19T04:36:36.109Z,75.70
2023-02-19T04:39:39.287Z,77.33
2023-02-19T04:42:42.840Z,78.20
2023-02-19T04:45:46.362Z,79.14
2023-02-19T04:48:50.115Z,79.69
2023-02-19T04:51:53.255Z,80.29
2023-02-19T04:54:56.651Z,81.22
2023-02-19T04:58:00.645Z,82.25
2023-02-19T05:01:04.674Z,83.26
2023-02-19T05:04:07.857Z,83.75
2023-02-19T05:07:11.428Z,84.55
2023-02-19T05:10:15.225Z,85.56
2023-02-19T05:13:18.780Z,86.87
2023-02-19T05:16:22.352Z,87.90
2023-02-19T05:19:25.930Z,88.24
2023-02-19T05:22:30.389Z,86.93
2023-02-19T05:25:33.842Z,85.62
2023-02-19T05:28:37.286Z,84.59
2023-02-19T05:31:41.772Z,84.70
2023-02-19T05:34:45.142Z,84.75
2023-02-19T05:37:48.548Z,85.33
2023-02-19T05:40:51.922Z,85.35
2023-02-19T05:43:57.236Z,86.04
2023-02-19T05:47:00.379Z,86.75
2023-02-19T05:50:03.965Z,86.84
2023-02-19T05:53:07.138Z,87.33
2023-02-19T05:56:34.698Z,86.50
2023-02-19T05:59:37.991Z,84.27
2023-02-19T06:02:41.694Z,82.92
2023-02-19T06:05:45.222Z,83.29
2023-02-19T06:08:50.503Z,81.60
2023-02-19T06:11:54.576Z,81.63
2023-02-19T06:14:58.008Z,82.07
2023-02-19T06:18:02.705Z,82.75
2023-02-19T06:21:09.118Z,81.45
2023-02-19T06:24:12.821Z,81.60
2023-02-19T06:27:16.115Z,81.89
2023-02-19T06:30:19.844Z,82.31
2023-02-19T06:33:23.243Z,82.33
2023-02-19T06:36:26.841Z,82.63
2023-02-19T06:39:30.090Z,82.85
2023-02-19T06:42:33.547Z,82.59
2023-02-19T06:45:36.759Z,82.95
2023-02-19T06:48:42.377Z,83.04
2023-02-19T06:51:45.935Z,82.92
2023-02-19T06:54:49.427Z,83.49
2023-02-19T06:57:52.635Z,83.40
2023-02-19T07:00:56.358Z,83.90
2023-02-19T07:03:59.793Z,84.17
2023-02-19T07:07:03.264Z,84.24
2023-02-19T07:10:07.295Z,84.76
2023-02-19T07:13:11.882Z,84.47
2023-02-19T07:16:15.730Z,84.50
2023-02-19T07:19:19.219Z,85.33
2023-02-19T07:22:22.450Z,85.86
2023-02-19T07:25:26.039Z,85.53
2023-02-19T07:28:29.396Z,86.15
2023-02-19T07:31:33.043Z,86.46
2023-02-19T07:34:37.500Z,86.57
2023-02-19T07:37:42.916Z,86.78
2023-02-19T07:40:54.460Z,86.78
2023-02-19T07:43:58.585Z,86.89
2023-02-19T07:47:01.754Z,86.47
2023-02-19T07:50:06.220Z,85.95
2023-02-19T07:53:09.288Z,86.25
2023-02-19T07:56:13.781Z,85.73
2023-02-19T07:59:22.280Z,85.63
2023-02-19T08:02:45.784Z,85.73
2023-02-19T08:05:53.594Z,85.43
2023-02-19T08:08:58.082Z,85.53
2023-02-19T08:12:20.375Z,85.17
2023-02-19T08:15:23.494Z,82.15
2023-02-19T08:18:29.757Z,79.90
2023-02-19T08:21:34.432Z,79.36
2023-02-19T08:24:43.019Z,80.50
2023-02-19T08:27:46.204Z,85.70
2023-02-19T08:30:50.993Z,87.84
2023-02-19T08:33:55.353Z,86.93
2023-02-19T08:37:02.169Z,90.67
2023-02-19T08:40:06.539Z,93.66
2023-02-19T08:43:19.300Z,96.09
2023-02-19T08:46:23.112Z,98.81
2023-02-19T08:49:27.456Z,99.41
2023-02-19T08:52:31.189Z,100.00
2023-02-19T08:55:38.840Z,100.00
2023-02-19T08:58:46.724Z,100.00
2023-02-19T09:01:51.043Z,100.00
2023-02-19T09:04:54.209Z,100.00
2023-02-19T09:07:57.964Z,100.00
2023-02-19T09:11:03.623Z,100.00
2023-02-19T09:14:08.322Z,100.00
2023-02-19T09:17:11.734Z,100.00
2023-02-19T09:20:17.657Z,100.00
2023-02-19T09:23:21.366Z,100.00
2023-02-19T09:26:25.567Z,100.00
2023-02-19T09:29:29.294Z,100.00
2023-02-19T09:32:33.718Z,100.00
2023-02-19T09:35:40.698Z,100.00
2023-02-19T09:38:44.784Z,100.00
2023-02-19T09:41:59.428Z,100.00
2023-02-19T09:45:06.409Z,100.00
2023-02-19T09:48:12.564Z,100.00
2023-02-19T09:51:18.349Z,100.00
2023-02-19T09:54:25.636Z,100.00
2023-02-19T09:57:33.050Z,100.00
2023-02-19T10:00:38.531Z,100.00
2023-02-19T10:03:47.540Z,97.55
2023-02-19T10:06:53.085Z,96.75
2023-02-19T10:10:02.836Z,95.38
2023-02-19T10:13:34.894Z,93.04
2023-02-19T10:16:44.918Z,93.16
2023-02-19T10:19:48.518Z,89.70
2023-02-19T10:23:04.022Z,94.32
2023-02-19T10:26:07.626Z,100.00
2023-02-19T10:29:13.074Z,100.00
2023-02-19T10:32:21.155Z,99.98
2023-02-19T10:35:26.855Z,99.55
2023-02-19T10:38:39.252Z,97.87
2023-02-19T10:41:44.511Z,93.82
2023-02-19T10:44:54.372Z,91.42
2023-02-19T10:48:00.503Z,92.52
2023-02-19T10:51:09.396Z,94.63
2023-02-19T10:54:19.602Z,94.41
2023-02-19T10:57:37.922Z,86.04
2023-02-19T11:00:42.680Z,83.49
2023-02-19T11:03:52.486Z,80.75
2023-02-19T11:06:57.963Z,76.99
2023-02-19T11:10:03.183Z,76.32
2023-02-19T11:13:15.683Z,75.80
2023-02-19T11:16:19.380Z,71.03
2023-02-19T11:19:31.424Z,72.35
2023-02-19T11:22:40.114Z,72.31
2023-02-19T11:25:53.258Z,70.23
2023-02-19T11:28:58.927Z,70.09
2023-02-19T11:32:25.376Z,68.94
2023-02-19T11:35:30.626Z,68.76
2023-02-19T11:38:35.662Z,69.66
2023-02-19T11:42:07.756Z,68.19
2023-02-19T11:45:22.927Z,67.92
2023-02-19T11:49:06.883Z,67.51
2023-02-19T11:52:34.253Z,67.47
2023-02-19T11:55:58.693Z,64.90
2023-02-19T11:59:08.521Z,64.33
2023-02-19T12:02:19.233Z,63.56
2023-02-19T12:05:33.980Z,63.60
2023-02-19T12:09:07.064Z,63.03
2023-02-19T12:12:38.284Z,63.23
2023-02-19T12:16:10.892Z,65.26
2023-02-19T12:19:47.846Z,64.71
2023-02-19T12:23:03.875Z,68.19
2023-02-19T12:26:17.075Z,71.15
2023-02-19T12:29:27.148Z,68.86
2023-02-19T12:33:06.236Z,69.43
2023-02-19T12:36:33.967Z,68.91
2023-02-19T12:39:56.717Z,84.78
2023-02-19T12:43:19.873Z,94.02
2023-02-19T12:46:35.205Z,94.82
2023-02-19T12:49:49.967Z,96.28
2023-02-19T12:53:21.433Z,93.66
2023-02-19T12:56:35.635Z,95.88
2023-02-19T13:00:02.820Z,93.75
2023-02-19T13:03:25.867Z,88.66
2023-02-19T13:06:48.941Z,83.15
2023-02-19T13:10:07.022Z,78.24
2023-02-19T13:13:20.643Z,75.05
2023-02-19T13:16:26.244Z,75.67
2023-02-19T13:19:33.564Z,74.68
2023-02-19T13:23:01.417Z,75.96
2023-02-19T13:26:43.131Z,78.54
2023-02-19T13:30:02.178Z,80.95
2023-02-19T13:33:43.126Z,80.01
2023-02-19T13:36:50.121Z,79.30
2023-02-19T13:39:56.113Z,77.38
2023-02-19T13:43:07.464Z,76.62
2023-02-19T13:46:18.397Z,75.85
2023-02-19T13:49:32.102Z,73.83
2023-02-19T13:52:40.004Z,70.43
2023-02-19T13:55:47.363Z,67.02
2023-02-19T13:59:05.288Z,66.76
2023-02-19T14:02:23.503Z,64.29
2023-02-19T14:06:00.042Z,63.72
2023-02-19T14:09:05.120Z,64.83
2023-02-19T14:12:16.092Z,63.52
2023-02-19T14:15:39.879Z,62.89
2023-02-19T14:18:46.525Z,64.13
2023-02-19T14:21:50.910Z,65.50
2023-02-19T14:24:59.157Z,66.49
2023-02-19T14:28:10.831Z,65.34
2023-02-19T14:31:38.550Z,63.99
2023-02-19T14:34:46.197Z,64.37
2023-02-19T14:37:53.741Z,66.40
2023-02-19T14:40:59.279Z,67.01
2023-02-19T14:44:07.647Z,67.64
2023-02-19T14:47:19.223Z,66.25
2023-02-19T14:50:33.860Z,66.70
2023-02-19T14:53:42.529Z,66.65
2023-02-19T14:56:53.964Z,66.70
2023-02-19T15:00:05.093Z,68.29
2023-02-19T15:03:30.051Z,67.57
2023-02-19T15:06:37.026Z,69.47
2023-02-19T15:09:48.743Z,69.74
2023-02-19T15:13:02.013Z,71.74
2023-02-19T15:16:09.968Z,72.27
2023-02-19T15:19:17.161Z,73.69
2023-02-19T15:22:24.785Z,73.66
2023-02-19T15:25:40.303Z,73.95
2023-02-19T15:28:46.866Z,74.80
2023-02-19T15:31:54.814Z,75.04
2023-02-19T15:35:03.394Z,75.30
2023-02-19T15:38:14.235Z,75.31
2023-02-19T15:41:25.623Z,76.19
2023-02-19T15:44:35.364Z,77.47
2023-02-19T15:47:49.330Z,77.21
2023-02-19T15:51:09.813Z,77.78
2023-02-19T15:54:28.562Z,78.17
2023-02-19T15:57:39.660Z,78.18
2023-02-19T16:00:51.213Z,79.21
2023-02-19T16:04:02.735Z,79.11
2023-02-19T16:07:24.144Z,79.10
2023-02-19T16:10:31.633Z,78.53
2023-02-19T16:16:45.229Z,78.16
2023-02-19T16:19:57.662Z,77.68
2023-02-19T16:23:15.849Z,78.42
2023-02-19T16:26:22.799Z,79.09
2023-02-19T16:29:32.632Z,80.16
2023-02-19T16:32:37.470Z,80.67
2023-02-19T16:35:42.202Z,80.40
2023-02-19T16:39:11.121Z,79.71
2023-02-19T16:42:20.049Z,80.52
2023-02-19T16:45:28.348Z,81.17
2023-02-19T16:48:35.175Z,80.22
2023-02-19T16:51:40.758Z,79.50
2023-02-19T16:54:49.787Z,79.19
2023-02-19T16:57:56.559Z,80.07
2023-02-19T17:01:02.231Z,81.24
2023-02-19T17:04:10.621Z,80.76
2023-02-19T17:07:17.783Z,82.13
2023-02-19T17:10:26.506Z,80.99
2023-02-19T17:13:34.830Z,80.47
2023-02-19T17:16:43.374Z,80.78
2023-02-19T17:19:52.978Z,80.46
2023-02-19T17:22:59.734Z,79.13
2023-02-19T17:26:05.001Z,78.43
2023-02-19T17:29:15.895Z,78.19
2023-02-19T17:32:21.401Z,78.17
2023-02-19T17:35:27.721Z,79.09
2023-02-19T17:38:33.316Z,78.33
2023-02-19T17:41:39.714Z,79.00
2023-02-19T17:44:46.598Z,79.42
2023-02-19T17:47:53.371Z,78.32
2023-02-19T17:51:00.191Z,78.36
2023-02-19T17:54:06.321Z,77.66
2023-02-19T17:57:14.131Z,78.64
2023-02-19T18:00:23.660Z,77.64
2023-02-19T18:03:32.204Z,77.55
2023-02-19T18:06:43.169Z,77.30
2023-02-19T18:09:53.574Z,76.61
2023-02-19T18:13:02.437Z,76.60
2023-02-19T18:16:07.650Z,76.43
2023-02-19T18:19:15.308Z,76.50
2023-02-19T18:22:32.704Z,77.00
2023-02-19T18:28:45.465Z,78.98
2023-02-19T18:31:50.927Z,80.26
2023-02-19T18:35:11.337Z,80.99
2023-02-19T18:38:17.663Z,81.74
2023-02-19T18:41:28.029Z,80.90
2023-02-19T18:44:33.888Z,79.63
2023-02-19T18:47:40.775Z,79.80
2023-02-19T18:50:48.115Z,80.71
2023-02-19T18:53:53.086Z,79.44
2023-02-19T18:57:01.392Z,81.63
2023-02-19T19:00:08.804Z,83.64
2023-02-19T19:03:18.162Z,84.22
2023-02-19T19:06:24.463Z,85.54
2023-02-19T19:09:32.919Z,85.67
2023-02-19T19:12:39.314Z,86.25
2023-02-19T19:15:51.649Z,85.48
2023-02-19T19:18:59.505Z,85.15
2023-02-19T19:22:06.140Z,84.07
2023-02-19T19:25:11.751Z,82.72
2023-02-19T19:28:17.506Z,82.35
2023-02-19T19:31:25.549Z,83.34
2023-02-19T19:34:31.544Z,84.37
2023-02-19T19:37:38.437Z,84.26
2023-02-19T19:40:44.248Z,85.32
2023-02-19T19:43:49.532Z,86.04
2023-02-19T19:46:56.250Z,85.79
2023-02-19T19:50:01.252Z,86.77
2023-02-19T19:53:08.967Z,86.62
2023-02-19T19:56:14.260Z,85.00
2023-02-19T19:59:21.585Z,82.40
2023-02-19T20:02:26.608Z,82.18
2023-02-19T20:05:34.715Z,81.47
2023-02-19T20:08:42.340Z,82.21
2023-02-19T20:11:53.110Z,80.47
2023-02-19T20:14:59.500Z,78.09
2023-02-19T20:18:05.649Z,76.32
2023-02-19T20:21:12.379Z,75.10
2023-02-19T20:24:24.470Z,74.73
2023-02-19T20:27:35.558Z,73.19
2023-02-19T20:30:41.231Z,73.52
2023-02-19T20:33:48.535Z,73.72
2023-02-19T20:36:59.609Z,73.19
2023-02-19T20:40:05.897Z,72.36
2023-02-19T20:43:11.116Z,72.24
2023-02-19T20:46:16.459Z,72.41
2023-02-19T20:49:30.658Z,70.79
2023-02-19T20:52:45.569Z,70.23
2023-02-19T20:55:53.503Z,71.09
2023-02-19T20:58:58.665Z,71.53
2023-02-19T21:02:08.984Z,71.13
2023-02-19T21:05:14.190Z,71.61
2023-02-19T21:08:21.086Z,71.69
2023-02-19T21:11:27.700Z,72.71
2023-02-19T21:14:33.564Z,72.58
2023-02-19T21:17:39.592Z,72.22
2023-02-19T21:20:44.396Z,71.92
2023-02-19T21:23:48.651Z,70.61
2023-02-19T21:26:53.465Z,69.76
2023-02-19T21:29:58.191Z,70.48
2023-02-19T21:33:03.174Z,71.11
2023-02-19T21:36:08.584Z,71.44
2023-02-19T21:39:16.995Z,70.72
2023-02-19T21:42:21.954Z,70.54
2023-02-19T21:45:26.268Z,70.83
2023-02-19T21:48:31.046Z,69.37
2023-02-19T21:51:38.183Z,69.31
2023-02-19T21:54:43.721Z,69.80
2023-02-19T21:57:48.448Z,69.07
2023-02-19T22:00:54.417Z,69.08
2023-02-19T22:03:59.189Z,68.63
2023-02-19T22:07:02.407Z,68.22
2023-02-19T22:10:10.424Z,68.83
2023-02-19T22:13:16.590Z,69.26
2023-02-19T22:16:21.522Z,68.97
2023-02-19T22:19:24.636Z,68.61
2023-02-19T22:22:29.473Z,69.98
2023-02-19T22:25:32.755Z,69.60
2023-02-19T22:28:36.293Z,69.15
2023-02-19T22:31:42.458Z,69.33
2023-02-19T22:34:46.083Z,69.63
2023-02-19T22:37:49.268Z,69.02
2023-02-19T22:40:53.255Z,69.52
2023-02-19T22:43:59.056Z,69.58
2023-02-19T22:47:02.876Z,69.70
2023-02-19T22:50:07.934Z,69.50
2023-02-19T22:53:12.809Z,68.97
2023-02-19T22:56:17.940Z,68.43
2023-02-19T22:59:22.528Z,67.80
2023-02-19T23:02:26.963Z,68.89
2023-02-19T23:05:33.548Z,68.45
2023-02-19T23:08:36.832Z,68.03
2023-02-19T23:11:40.592Z,67.11
2023-02-19T23:14:43.883Z,67.17
2023-02-19T23:17:47.366Z,66.79
2023-02-19T23:20:50.631Z,67.71
2023-02-19T23:23:55.077Z,67.37
2023-02-19T23:27:00.027Z,68.04
2023-02-19T23:30:03.666Z,67.86
2023-02-19T23:33:07.499Z,68.52
2023-02-19T23:36:12.213Z,68.65
2023-02-19T23:39:18.228Z,68.66
2023-02-19T23:42:21.832Z,69.33
2023-02-19T23:45:25.367Z,69.28
2023-02-19T23:48:29.059Z,69.46
2023-02-19T23:51:32.391Z,69.37
2023-02-19T23:54:36.689Z,67.99
2023-02-19T23:57:40.088Z,67.70
